sensor_id;sensor_type;location;lat;lon;timestamp;pressure;altitude;pressure_sealevel;temperature;humidity
63903;BME280;50072;50.678;13.938;2024-03-22T00:00:10;100078.38;;;9.42;84.24
63903;BME280;50072;50.678;13.938;2024-03-22T00:03:04;100082.81;;;9.45;84.36
63903;BME280;50072;50.678;13.938;2024-03-22T00:05:41;100083.72;;;9.42;85.07
63903;BME280;50072;50.678;13.938;2024-03-22T00:08:07;100071.22;;;9.44;84.59
63903;BME280;50072;50.678;13.938;2024-03-22T00:10:34;100061.66;;;9.29;84.82
63903;BME280;50072;50.678;13.938;2024-03-22T00:13:00;100074.16;;;9.24;85.95
63903;BME280;50072;50.678;13.938;2024-03-22T00:15:27;100070.66;;;9.19;84.84
63903;BME280;50072;50.678;13.938;2024-03-22T00:17:52;100075.19;;;9.15;85.05
63903;BME280;50072;50.678;13.938;2024-03-22T00:20:18;100063.59;;;9.17;85.37
63903;BME280;50072;50.678;13.938;2024-03-22T00:22:45;100064.50;;;9.14;85.59
63903;BME280;50072;50.678;13.938;2024-03-22T00:25:11;100053.94;;;9.08;85.31
63903;BME280;50072;50.678;13.938;2024-03-22T00:27:40;100055.66;;;9.09;85.57
63903;BME280;50072;50.678;13.938;2024-03-22T00:30:12;100057.41;;;9.11;85.24
63903;BME280;50072;50.678;13.938;2024-03-22T00:32:41;100060.97;;;9.12;85.96
63903;BME280;50072;50.678;13.938;2024-03-22T00:35:06;100060.13;;;9.10;85.98
63903;BME280;50072;50.678;13.938;2024-03-22T00:37:39;100053.00;;;9.09;85.97
63903;BME280;50072;50.678;13.938;2024-03-22T00:40:06;100059.31;;;9.03;85.02
63903;BME280;50072;50.678;13.938;2024-03-22T00:42:35;100062.81;;;9.08;85.25
63903;BME280;50072;50.678;13.938;2024-03-22T00:45:01;100052.13;;;9.08;85.38
63903;BME280;50072;50.678;13.938;2024-03-22T00:47:27;100062.84;;;9.05;86.09
63903;BME280;50072;50.678;13.938;2024-03-22T00:49:53;100064.63;;;9.03;85.89
63903;BME280;50072;50.678;13.938;2024-03-22T00:52:19;100061.13;;;9.01;86.19
63903;BME280;50072;50.678;13.938;2024-03-22T00:54:45;100076.19;;;9.05;86.93
63903;BME280;50072;50.678;13.938;2024-03-22T00:57:12;100066.44;;;9.03;86.15
63903;BME280;50072;50.678;13.938;2024-03-22T00:59:38;100068.22;;;9.02;85.98
63903;BME280;50072;50.678;13.938;2024-03-22T01:02:04;100070.03;;;9.00;86.44
63903;BME280;50072;50.678;13.938;2024-03-22T01:04:29;100052.28;;;8.96;85.88
63903;BME280;50072;50.678;13.938;2024-03-22T01:07:02;100059.44;;;8.94;86.11
63903;BME280;50072;50.678;13.938;2024-03-22T01:09:28;100058.50;;;8.98;85.14
63903;BME280;50072;50.678;13.938;2024-03-22T01:11:54;100050.50;;;8.95;85.64
63903;BME280;50072;50.678;13.938;2024-03-22T01:14:20;100070.03;;;8.98;85.37
63903;BME280;50072;50.678;13.938;2024-03-22T01:16:45;100060.31;;;8.93;85.88
63903;BME280;50072;50.678;13.938;2024-03-22T01:19:12;100058.50;;;8.96;86.01
63903;BME280;50072;50.678;13.938;2024-03-22T01:21:42;100061.13;;;9.01;86.63
63903;BME280;50072;50.678;13.938;2024-03-22T01:24:08;100051.34;;;8.98;86.69
63903;BME280;50072;50.678;13.938;2024-03-22T01:26:34;100059.38;;;8.97;87.13
63903;BME280;50072;50.678;13.938;2024-03-22T01:29:00;100048.72;;;8.95;87.03
63903;BME280;50072;50.678;13.938;2024-03-22T01:31:26;100047.03;;;8.90;86.12
63903;BME280;50072;50.678;13.938;2024-03-22T01:33:52;100044.38;;;8.88;87.07
63903;BME280;50072;50.678;13.938;2024-03-22T01:36:17;100033.66;;;8.90;86.07
63903;BME280;50072;50.678;13.938;2024-03-22T01:38:44;100029.19;;;8.90;86.50
63903;BME280;50072;50.678;13.938;2024-03-22T01:41:12;100031.75;;;9.01;86.89
63903;BME280;50072;50.678;13.938;2024-03-22T01:43:38;100028.25;;;8.96;86.88
63903;BME280;50072;50.678;13.938;2024-03-22T01:46:04;100023.75;;;9.01;86.81
63903;BME280;50072;50.678;13.938;2024-03-22T01:48:31;100021.88;;;9.06;86.55
63903;BME280;50072;50.678;13.938;2024-03-22T01:50:58;100013.88;;;9.05;86.80
63903;BME280;50072;50.678;13.938;2024-03-22T01:53:24;100010.38;;;9.03;86.88
63903;BME280;50072;50.678;13.938;2024-03-22T01:55:50;100004.13;;;9.05;86.91
63903;BME280;50072;50.678;13.938;2024-03-22T01:58:18;99993.31;;;9.13;87.21
63903;BME280;50072;50.678;13.938;2024-03-22T02:00:43;99988.91;;;9.09;86.90
63903;BME280;50072;50.678;13.938;2024-03-22T02:03:11;99995.16;;;9.09;87.38
63903;BME280;50072;50.678;13.938;2024-03-22T02:05:37;99991.56;;;9.10;87.63
63903;BME280;50072;50.678;13.938;2024-03-22T02:08:05;99982.72;;;9.07;87.56
63903;BME280;50072;50.678;13.938;2024-03-22T02:10:32;99988.91;;;9.10;87.87
63903;BME280;50072;50.678;13.938;2024-03-22T02:12:59;99982.66;;;9.11;88.09
63903;BME280;50072;50.678;13.938;2024-03-22T02:15:24;99977.38;;;9.08;87.85
63903;BME280;50072;50.678;13.938;2024-03-22T02:17:50;99982.75;;;9.05;88.10
63903;BME280;50072;50.678;13.938;2024-03-22T02:20:16;99978.28;;;9.06;88.26
63903;BME280;50072;50.678;13.938;2024-03-22T02:22:42;99977.38;;;9.08;88.71
63903;BME280;50072;50.678;13.938;2024-03-22T02:25:08;99975.59;;;9.07;88.67
63903;BME280;50072;50.678;13.938;2024-03-22T02:27:39;99969.44;;;9.04;88.73
63903;BME280;50072;50.678;13.938;2024-03-22T02:30:08;99964.09;;;9.04;89.21
63903;BME280;50072;50.678;13.938;2024-03-22T02:32:38;99961.41;;;9.05;89.75
63903;BME280;50072;50.678;13.938;2024-03-22T02:35:08;99956.97;;;9.03;89.13
63903;BME280;50072;50.678;13.938;2024-03-22T02:37:39;99957.03;;;9.00;89.55
63903;BME280;50072;50.678;13.938;2024-03-22T02:40:06;99952.66;;;8.94;89.87
63903;BME280;50072;50.678;13.938;2024-03-22T02:42:32;99947.38;;;8.88;89.99
63903;BME280;50072;50.678;13.938;2024-03-22T02:44:59;99941.19;;;8.86;90.53
63903;BME280;50072;50.678;13.938;2024-03-22T02:47:27;99937.72;;;8.77;90.96
63903;BME280;50072;50.678;13.938;2024-03-22T02:49:52;99928.00;;;8.73;91.55
63903;BME280;50072;50.678;13.938;2024-03-22T02:52:18;99932.41;;;8.76;91.91
63903;BME280;50072;50.678;13.938;2024-03-22T02:54:50;99921.78;;;8.73;92.66
63903;BME280;50072;50.678;13.938;2024-03-22T02:57:16;99925.38;;;8.70;93.18
63903;BME280;50072;50.678;13.938;2024-03-22T02:59:43;99925.41;;;8.69;94.12
63903;BME280;50072;50.678;13.938;2024-03-22T03:02:10;99925.47;;;8.64;93.90
63903;BME280;50072;50.678;13.938;2024-03-22T03:04:47;99931.63;;;8.69;94.69
63903;BME280;50072;50.678;13.938;2024-03-22T03:07:14;99917.63;;;8.52;96.08
63903;BME280;50072;50.678;13.938;2024-03-22T03:09:42;99929.13;;;8.57;96.17
63903;BME280;50072;50.678;13.938;2024-03-22T03:12:08;99927.31;;;8.57;95.52
63903;BME280;50072;50.678;13.938;2024-03-22T03:14:39;99919.38;;;8.53;97.38
63903;BME280;50072;50.678;13.938;2024-03-22T03:17:08;99921.25;;;8.44;99.78
63903;BME280;50072;50.678;13.938;2024-03-22T03:19:36;99916.03;;;8.32;100.00
63903;BME280;50072;50.678;13.938;2024-03-22T03:22:04;99904.63;;;8.19;100.00
63903;BME280;50072;50.678;13.938;2024-03-22T03:24:34;99905.59;;;8.13;100.00
63903;BME280;50072;50.678;13.938;2024-03-22T03:27:00;99890.50;;;8.12;100.00
63903;BME280;50072;50.678;13.938;2024-03-22T03:29:27;99893.22;;;8.08;100.00
63903;BME280;50072;50.678;13.938;2024-03-22T03:31:54;99891.50;;;8.02;100.00
63903;BME280;50072;50.678;13.938;2024-03-22T03:34:19;99891.50;;;8.01;100.00
63903;BME280;50072;50.678;13.938;2024-03-22T03:36:48;99893.38;;;7.94;100.00
63903;BME280;50072;50.678;13.938;2024-03-22T03:39:15;99889.03;;;7.85;100.00
63903;BME280;50072;50.678;13.938;2024-03-22T03:41:41;99888.25;;;7.72;100.00
63903;BME280;50072;50.678;13.938;2024-03-22T03:44:14;99889.25;;;7.62;100.00
63903;BME280;50072;50.678;13.938;2024-03-22T03:46:46;99897.25;;;7.60;100.00
63903;BME280;50072;50.678;13.938;2024-03-22T03:49:14;99894.47;;;7.74;100.00
63903;BME280;50072;50.678;13.938;2024-03-22T03:51:40;99890.00;;;7.76;100.00
63903;BME280;50072;50.678;13.938;2024-03-22T03:54:07;99882.03;;;7.72;100.00
63903;BME280;50072;50.678;13.938;2024-03-22T03:56:33;99881.16;;;7.73;100.00
63903;BME280;50072;50.678;13.938;2024-03-22T03:58:59;99878.50;;;7.73;100.00
63903;BME280;50072;50.678;13.938;2024-03-22T04:01:25;99880.31;;;7.68;100.00
63903;BME280;50072;50.678;13.938;2024-03-22T04:03:52;99889.22;;;7.67;100.00
63903;BME280;50072;50.678;13.938;2024-03-22T04:06:18;99880.31;;;7.68;100.00
63903;BME280;50072;50.678;13.938;2024-03-22T04:08:47;99879.47;;;7.64;100.00
63903;BME280;50072;50.678;13.938;2024-03-22T04:11:16;99875.97;;;7.59;100.00
63903;BME280;50072;50.678;13.938;2024-03-22T04:13:47;99868.94;;;7.52;100.00
63903;BME280;50072;50.678;13.938;2024-03-22T04:16:14;99868.03;;;7.53;100.00
63903;BME280;50072;50.678;13.938;2024-03-22T04:18:42;99863.59;;;7.52;100.00
63903;BME280;50072;50.678;13.938;2024-03-22T04:21:09;99876.97;;;7.47;100.00
63903;BME280;50072;50.678;13.938;2024-03-22T04:23:35;99876.06;;;7.47;100.00
63903;BME280;50072;50.678;13.938;2024-03-22T04:26:07;99874.28;;;7.49;100.00
63903;BME280;50072;50.678;13.938;2024-03-22T04:28:33;99870.81;;;7.40;100.00
63903;BME280;50072;50.678;13.938;2024-03-22T04:31:05;99872.59;;;7.35;100.00
63903;BME280;50072;50.678;13.938;2024-03-22T04:33:32;99872.59;;;7.38;100.00
63903;BME280;50072;50.678;13.938;2024-03-22T04:36:00;99873.50;;;7.36;100.00
63903;BME280;50072;50.678;13.938;2024-03-22T04:38:31;99867.34;;;7.29;100.00
63903;BME280;50072;50.678;13.938;2024-03-22T04:40:57;99870.00;;;7.31;100.00
63903;BME280;50072;50.678;13.938;2024-03-22T04:43:29;99867.34;;;7.29;100.00
63903;BME280;50072;50.678;13.938;2024-03-22T04:45:55;99876.28;;;7.23;100.00
63903;BME280;50072;50.678;13.938;2024-03-22T04:48:21;99870.09;;;7.20;100.00
63903;BME280;50072;50.678;13.938;2024-03-22T04:50:48;99873.72;;;7.13;100.00
63903;BME280;50072;50.678;13.938;2024-03-22T04:53:18;99869.31;;;7.08;100.00
63903;BME280;50072;50.678;13.938;2024-03-22T04:55:45;99874.63;;;7.08;100.00
63903;BME280;50072;50.678;13.938;2024-03-22T04:58:13;99869.41;;;6.95;100.00
63903;BME280;50072;50.678;13.938;2024-03-22T05:00:40;99867.59;;;6.95;100.00
63903;BME280;50072;50.678;13.938;2024-03-22T05:03:07;99867.59;;;6.95;100.00
63903;BME280;50072;50.678;13.938;2024-03-22T05:05:34;99864.13;;;6.84;100.00
63903;BME280;50072;50.678;13.938;2024-03-22T05:08:01;99863.25;;;6.83;100.00
63903;BME280;50072;50.678;13.938;2024-03-22T05:10:28;99872.13;;;6.82;100.00
63903;BME280;50072;50.678;13.938;2024-03-22T05:12:55;99863.25;;;6.85;100.00
63903;BME280;50072;50.678;13.938;2024-03-22T05:15:21;99865.97;;;6.79;100.00
63903;BME280;50072;50.678;13.938;2024-03-22T05:17:47;99858.91;;;6.74;100.00
63903;BME280;50072;50.678;13.938;2024-03-22T05:20:13;99860.66;;;6.76;100.00
63903;BME280;50072;50.678;13.938;2024-03-22T05:22:39;99856.28;;;6.70;100.00
63903;BME280;50072;50.678;13.938;2024-03-22T05:25:06;99858.94;;;6.70;100.00
63903;BME280;50072;50.678;13.938;2024-03-22T05:27:32;99862.50;;;6.61;100.00
63903;BME280;50072;50.678;13.938;2024-03-22T05:29:58;99857.19;;;6.61;100.00
63903;BME280;50072;50.678;13.938;2024-03-22T05:32:25;99850.09;;;6.62;100.00
63903;BME280;50072;50.678;13.938;2024-03-22T05:34:57;99847.44;;;6.65;100.00
63903;BME280;50072;50.678;13.938;2024-03-22T05:37:23;99858.97;;;6.62;100.00
63903;BME280;50072;50.678;13.938;2024-03-22T05:39:49;99850.97;;;6.65;100.00
63903;BME280;50072;50.678;13.938;2024-03-22T05:42:16;99848.31;;;6.68;100.00
63903;BME280;50072;50.678;13.938;2024-03-22T05:44:43;99842.94;;;6.74;100.00
63903;BME280;50072;50.678;13.938;2024-03-22T05:47:11;99843.75;;;6.84;100.00
63903;BME280;50072;50.678;13.938;2024-03-22T05:49:37;99842.81;;;6.91;100.00
63903;BME280;50072;50.678;13.938;2024-03-22T05:52:03;99846.31;;;6.95;100.00
63903;BME280;50072;50.678;13.938;2024-03-22T05:54:29;99852.47;;;7.03;100.00
63903;BME280;50072;50.678;13.938;2024-03-22T05:56:55;99855.97;;;7.12;100.00
63903;BME280;50072;50.678;13.938;2024-03-22T05:59:22;99852.31;;;7.22;100.00
63903;BME280;50072;50.678;13.938;2024-03-22T06:01:49;99844.28;;;7.28;100.00
63903;BME280;50072;50.678;13.938;2024-03-22T06:04:15;99842.44;;;7.36;100.00
63903;BME280;50072;50.678;13.938;2024-03-22T06:06:41;99838.88;;;7.37;100.00
63903;BME280;50072;50.678;13.938;2024-03-22T06:09:08;99843.31;;;7.35;100.00
63903;BME280;50072;50.678;13.938;2024-03-22T06:11:37;99846.06;;;7.29;100.00
63903;BME280;50072;50.678;13.938;2024-03-22T06:14:03;99849.59;;;7.31;100.00
63903;BME280;50072;50.678;13.938;2024-03-22T06:16:30;99845.84;;;7.51;100.00
63903;BME280;50072;50.678;13.938;2024-03-22T06:18:56;99843.88;;;7.71;100.00
63903;BME280;50072;50.678;13.938;2024-03-22T06:21:22;99846.38;;;7.88;100.00
63903;BME280;50072;50.678;13.938;2024-03-22T06:23:53;99839.91;;;8.06;100.00
63903;BME280;50072;50.678;13.938;2024-03-22T06:26:19;99845.09;;;8.19;100.00
63903;BME280;50072;50.678;13.938;2024-03-22T06:28:45;99845.81;;;8.33;100.00
63903;BME280;50072;50.678;13.938;2024-03-22T06:31:11;99832.34;;;8.45;100.00
63903;BME280;50072;50.678;13.938;2024-03-22T06:33:37;99831.31;;;8.56;100.00
63903;BME280;50072;50.678;13.938;2024-03-22T06:36:05;99825.00;;;8.61;100.00
63903;BME280;50072;50.678;13.938;2024-03-22T06:38:31;99831.03;;;8.74;100.00
63903;BME280;50072;50.678;13.938;2024-03-22T06:40:57;99833.59;;;8.84;100.00
63903;BME280;50072;50.678;13.938;2024-03-22T06:43:25;99828.09;;;8.93;100.00
63903;BME280;50072;50.678;13.938;2024-03-22T06:45:51;99826.31;;;8.92;100.00
63903;BME280;50072;50.678;13.938;2024-03-22T06:48:19;99826.22;;;9.00;100.00
63903;BME280;50072;50.678;13.938;2024-03-22T06:50:45;99817.16;;;9.08;99.13
63903;BME280;50072;50.678;13.938;2024-03-22T06:53:12;99802.06;;;9.07;97.08
63903;BME280;50072;50.678;13.938;2024-03-22T06:55:44;99811.63;;;9.21;96.96
63903;BME280;50072;50.678;13.938;2024-03-22T06:58:10;99809.66;;;9.32;96.11
63903;BME280;50072;50.678;13.938;2024-03-22T07:00:39;99815.84;;;9.34;93.60
63903;BME280;50072;50.678;13.938;2024-03-22T07:03:07;99809.47;;;9.41;93.41
63903;BME280;50072;50.678;13.938;2024-03-22T07:05:33;99808.25;;;9.59;92.01
63903;BME280;50072;50.678;13.938;2024-03-22T07:07:59;99815.97;;;9.76;90.57
63903;BME280;50072;50.678;13.938;2024-03-22T07:10:25;99810.22;;;9.96;88.16
63903;BME280;50072;50.678;13.938;2024-03-22T07:12:56;99799.50;;;9.98;88.48
63903;BME280;50072;50.678;13.938;2024-03-22T07:15:25;99804.06;;;9.91;86.75
63903;BME280;50072;50.678;13.938;2024-03-22T07:17:52;99813.97;;;9.88;87.75
63903;BME280;50072;50.678;13.938;2024-03-22T07:20:18;99808.56;;;9.91;85.59
63903;BME280;50072;50.678;13.938;2024-03-22T07:22:44;99811.28;;;9.88;86.32
63903;BME280;50072;50.678;13.938;2024-03-22T07:25:11;99812.78;;;10.01;86.76
63903;BME280;50072;50.678;13.938;2024-03-22T07:27:38;99813.59;;;10.06;85.72
63903;BME280;50072;50.678;13.938;2024-03-22T07:30:05;99811.63;;;10.14;84.48
63903;BME280;50072;50.678;13.938;2024-03-22T07:32:32;99809.81;;;10.16;83.00
63903;BME280;50072;50.678;13.938;2024-03-22T07:34:59;99804.19;;;10.27;82.58
63903;BME280;50072;50.678;13.938;2024-03-22T07:37:25;99805.44;;;10.12;81.92
63903;BME280;50072;50.678;13.938;2024-03-22T07:39:50;99803.44;;;10.22;81.78
63903;BME280;50072;50.678;13.938;2024-03-22T07:42:18;99804.38;;;10.19;80.70
63903;BME280;50072;50.678;13.938;2024-03-22T07:44:44;99808.41;;;9.97;82.80
63903;BME280;50072;50.678;13.938;2024-03-22T07:47:10;99807.00;;;9.77;82.28
63903;BME280;50072;50.678;13.938;2024-03-22T07:49:37;99803.44;;;9.78;83.97
63903;BME280;50072;50.678;13.938;2024-03-22T07:52:03;99794.50;;;9.79;83.24
63903;BME280;50072;50.678;13.938;2024-03-22T07:54:30;99800.50;;;9.92;83.25
63903;BME280;50072;50.678;13.938;2024-03-22T07:56:57;99800.66;;;9.83;83.15
63903;BME280;50072;50.678;13.938;2024-03-22T07:59:23;99790.34;;;10.08;83.39
63903;BME280;50072;50.678;13.938;2024-03-22T08:01:49;99799.22;;;10.10;81.99
63903;BME280;50072;50.678;13.938;2024-03-22T08:04:15;99805.19;;;10.23;81.47
63903;BME280;50072;50.678;13.938;2024-03-22T08:06:41;99799.47;;;10.43;81.81
63903;BME280;50072;50.678;13.938;2024-03-22T08:09:08;99791.16;;;10.54;80.25
63903;BME280;50072;50.678;13.938;2024-03-22T08:11:34;99775.22;;;10.49;79.23
63903;BME280;50072;50.678;13.938;2024-03-22T08:14:00;99782.22;;;10.55;79.45
63903;BME280;50072;50.678;13.938;2024-03-22T08:16:29;99780.78;;;10.79;79.10
63903;BME280;50072;50.678;13.938;2024-03-22T08:18:56;99780.00;;;10.74;77.71
63903;BME280;50072;50.678;13.938;2024-03-22T08:21:23;99773.50;;;10.84;77.54
63903;BME280;50072;50.678;13.938;2024-03-22T08:23:51;99768.44;;;11.08;77.19
63903;BME280;50072;50.678;13.938;2024-03-22T08:26:18;99773.75;;;11.10;76.22
63903;BME280;50072;50.678;13.938;2024-03-22T08:28:46;99776.97;;;11.24;76.26
63903;BME280;50072;50.678;13.938;2024-03-22T08:31:13;99775.44;;;11.48;75.15
63903;BME280;50072;50.678;13.938;2024-03-22T08:33:39;99775.34;;;11.51;73.75
63903;BME280;50072;50.678;13.938;2024-03-22T08:36:06;99781.09;;;11.70;73.73
63903;BME280;50072;50.678;13.938;2024-03-22T08:38:32;99774.00;;;12.01;73.18
63903;BME280;50072;50.678;13.938;2024-03-22T08:41:00;99772.25;;;12.30;72.06
63903;BME280;50072;50.678;13.938;2024-03-22T08:43:26;99763.63;;;12.18;70.13
63903;BME280;50072;50.678;13.938;2024-03-22T08:45:55;99760.53;;;12.32;70.04
63903;BME280;50072;50.678;13.938;2024-03-22T08:48:21;99757.84;;;12.89;71.03
63903;BME280;50072;50.678;13.938;2024-03-22T08:50:47;99755.78;;;12.97;66.67
63903;BME280;50072;50.678;13.938;2024-03-22T08:53:14;99754.78;;;13.26;66.76
63903;BME280;50072;50.678;13.938;2024-03-22T08:55:47;99748.72;;;13.21;65.92
63903;BME280;50072;50.678;13.938;2024-03-22T08:58:14;99753.50;;;12.85;66.68
63903;BME280;50072;50.678;13.938;2024-03-22T09:00:41;99750.56;;;12.92;66.69
63903;BME280;50072;50.678;13.938;2024-03-22T09:03:08;99741.91;;;12.84;67.70
63903;BME280;50072;50.678;13.938;2024-03-22T09:05:36;99734.66;;;12.86;67.43
63903;BME280;50072;50.678;13.938;2024-03-22T09:08:03;99746.72;;;13.00;66.66
63903;BME280;50072;50.678;13.938;2024-03-22T09:10:30;99735.72;;;12.81;66.08
63903;BME280;50072;50.678;13.938;2024-03-22T09:12:56;99739.34;;;13.06;66.25
63903;BME280;50072;50.678;13.938;2024-03-22T09:15:22;99738.72;;;12.98;66.64
63903;BME280;50072;50.678;13.938;2024-03-22T09:17:49;99723.56;;;13.22;65.20
63903;BME280;50072;50.678;13.938;2024-03-22T09:20:16;99730.59;;;13.26;65.30
63903;BME280;50072;50.678;13.938;2024-03-22T09:22:42;99726.63;;;13.63;65.17
63903;BME280;50072;50.678;13.938;2024-03-22T09:25:09;99723.66;;;13.71;64.26
63903;BME280;50072;50.678;13.938;2024-03-22T09:27:35;99719.09;;;13.97;62.13
63903;BME280;50072;50.678;13.938;2024-03-22T09:30:01;99707.44;;;13.96;63.40
63903;BME280;50072;50.678;13.938;2024-03-22T09:32:30;99706.97;;;13.85;62.19
63903;BME280;50072;50.678;13.938;2024-03-22T09:34:57;99700.50;;;13.67;63.84
63903;BME280;50072;50.678;13.938;2024-03-22T09:37:24;99711.00;;;13.73;65.25
63903;BME280;50072;50.678;13.938;2024-03-22T09:39:50;99708.41;;;13.46;63.75
63903;BME280;50072;50.678;13.938;2024-03-22T09:42:17;99704.66;;;13.25;64.88
63903;BME280;50072;50.678;13.938;2024-03-22T09:44:49;99706.53;;;12.97;65.60
63903;BME280;50072;50.678;13.938;2024-03-22T09:47:16;99700.34;;;12.94;66.23
63903;BME280;50072;50.678;13.938;2024-03-22T09:49:44;99696.47;;;13.03;66.65
63903;BME280;50072;50.678;13.938;2024-03-22T09:52:14;99700.66;;;12.85;65.91
63903;BME280;50072;50.678;13.938;2024-03-22T09:54:44;99699.44;;;12.69;67.33
63903;BME280;50072;50.678;13.938;2024-03-22T09:57:14;99699.78;;;12.58;67.95
63903;BME280;50072;50.678;13.938;2024-03-22T09:59:44;99690.59;;;12.65;68.42
63903;BME280;50072;50.678;13.938;2024-03-22T10:02:12;99691.06;;;12.51;69.24
63903;BME280;50072;50.678;13.938;2024-03-22T10:04:40;99679.44;;;12.22;69.09
63903;BME280;50072;50.678;13.938;2024-03-22T10:07:06;99680.22;;;12.26;69.83
63903;BME280;50072;50.678;13.938;2024-03-22T10:09:34;99682.66;;;12.34;70.46
63903;BME280;50072;50.678;13.938;2024-03-22T10:12:00;99672.72;;;12.37;70.59
63903;BME280;50072;50.678;13.938;2024-03-22T10:14:27;99673.91;;;12.55;69.48
63903;BME280;50072;50.678;13.938;2024-03-22T10:16:53;99673.16;;;12.78;68.96
63903;BME280;50072;50.678;13.938;2024-03-22T10:19:21;99669.88;;;12.95;68.55
63903;BME280;50072;50.678;13.938;2024-03-22T10:21:58;99673.88;;;13.36;67.76
63903;BME280;50072;50.678;13.938;2024-03-22T10:24:26;99657.19;;;13.51;66.09
63903;BME280;50072;50.678;13.938;2024-03-22T10:26:52;99658.53;;;14.09;66.35
63903;BME280;50072;50.678;13.938;2024-03-22T10:29:19;99659.59;;;14.49;62.54
63903;BME280;50072;50.678;13.938;2024-03-22T10:31:45;99667.47;;;14.98;61.39
63903;BME280;50072;50.678;13.938;2024-03-22T10:34:16;99649.47;;;14.78;61.79
63903;BME280;50072;50.678;13.938;2024-03-22T10:36:44;99648.88;;;14.92;61.20
63903;BME280;50072;50.678;13.938;2024-03-22T10:39:15;99658.53;;;15.18;60.16
63903;BME280;50072;50.678;13.938;2024-03-22T10:41:43;99657.09;;;15.69;59.40
63903;BME280;50072;50.678;13.938;2024-03-22T10:44:09;99649.47;;;16.54;57.09
63903;BME280;50072;50.678;13.938;2024-03-22T10:46:35;99645.38;;;17.34;54.53
63903;BME280;50072;50.678;13.938;2024-03-22T10:49:02;99644.75;;;18.44;50.77
63903;BME280;50072;50.678;13.938;2024-03-22T10:51:34;99642.16;;;19.34;51.90
63903;BME280;50072;50.678;13.938;2024-03-22T10:54:03;99636.16;;;20.00;47.34
63903;BME280;50072;50.678;13.938;2024-03-22T10:56:31;99624.66;;;19.97;46.26
63903;BME280;50072;50.678;13.938;2024-03-22T10:59:03;99616.16;;;19.15;47.83
63903;BME280;50072;50.678;13.938;2024-03-22T11:01:32;99613.31;;;18.09;49.54
63903;BME280;50072;50.678;13.938;2024-03-22T11:04:10;99605.88;;;18.91;49.21
63903;BME280;50072;50.678;13.938;2024-03-22T11:06:37;99609.47;;;19.21;46.89
63903;BME280;50072;50.678;13.938;2024-03-22T11:09:03;99598.63;;;20.07;45.81
63903;BME280;50072;50.678;13.938;2024-03-22T11:11:35;99588.28;;;20.94;44.37
63903;BME280;50072;50.678;13.938;2024-03-22T11:14:05;99591.97;;;20.93;42.64
63903;BME280;50072;50.678;13.938;2024-03-22T11:16:31;99565.66;;;21.45;40.42
63903;BME280;50072;50.678;13.938;2024-03-22T11:18:57;99569.09;;;22.47;39.58
63903;BME280;50072;50.678;13.938;2024-03-22T11:21:23;99570.28;;;24.39;37.19
63903;BME280;50072;50.678;13.938;2024-03-22T11:23:51;99564.06;;;26.64;33.26
63903;BME280;50072;50.678;13.938;2024-03-22T11:26:17;99566.53;;;26.97;30.59
63903;BME280;50072;50.678;13.938;2024-03-22T11:28:44;99553.53;;;25.99;31.53
63903;BME280;50072;50.678;13.938;2024-03-22T11:31:10;99553.03;;;23.02;34.85
63903;BME280;50072;50.678;13.938;2024-03-22T11:33:36;99539.47;;;20.65;39.64
63903;BME280;50072;50.678;13.938;2024-03-22T11:36:03;99540.63;;;21.01;39.00
63903;BME280;50072;50.678;13.938;2024-03-22T11:38:34;99531.91;;;21.61;38.99
63903;BME280;50072;50.678;13.938;2024-03-22T11:41:02;99525.53;;;21.73;38.81
63903;BME280;50072;50.678;13.938;2024-03-22T11:43:30;99515.63;;;21.72;37.66
63903;BME280;50072;50.678;13.938;2024-03-22T11:45:56;99513.19;;;21.80;38.17
63903;BME280;50072;50.678;13.938;2024-03-22T11:48:22;99508.81;;;21.41;39.32
63903;BME280;50072;50.678;13.938;2024-03-22T11:50:49;99502.63;;;21.00;39.68
63903;BME280;50072;50.678;13.938;2024-03-22T11:53:16;99494.75;;;20.16;41.70
63903;BME280;50072;50.678;13.938;2024-03-22T11:55:43;99493.16;;;19.87;42.11
63903;BME280;50072;50.678;13.938;2024-03-22T11:58:10;99492.34;;;19.28;43.36
63903;BME280;50072;50.678;13.938;2024-03-22T12:00:36;99490.16;;;18.61;44.94
63903;BME280;50072;50.678;13.938;2024-03-22T12:03:07;99485.75;;;18.44;46.19
63903;BME280;50072;50.678;13.938;2024-03-22T12:05:33;99486.03;;;18.09;46.50
63903;BME280;50072;50.678;13.938;2024-03-22T12:08:00;99472.00;;;18.33;47.94
63903;BME280;50072;50.678;13.938;2024-03-22T12:10:26;99467.50;;;18.18;46.11
63903;BME280;50072;50.678;13.938;2024-03-22T12:12:54;99462.91;;;18.34;46.19
63903;BME280;50072;50.678;13.938;2024-03-22T12:15:21;99460.88;;;18.52;47.01
63903;BME280;50072;50.678;13.938;2024-03-22T12:17:48;99451.06;;;19.23;45.19
63903;BME280;50072;50.678;13.938;2024-03-22T12:20:14;99441.25;;;20.04;43.46
63903;BME280;50072;50.678;13.938;2024-03-22T12:22:42;99444.03;;;20.30;42.71
63903;BME280;50072;50.678;13.938;2024-03-22T12:25:08;99438.56;;;20.17;43.56
63903;BME280;50072;50.678;13.938;2024-03-22T12:27:35;99434.94;;;20.04;42.15
63903;BME280;50072;50.678;13.938;2024-03-22T12:30:01;99436.09;;;19.87;42.67
63903;BME280;50072;50.678;13.938;2024-03-22T12:32:27;99424.81;;;19.93;42.56
63903;BME280;50072;50.678;13.938;2024-03-22T12:34:55;99426.41;;;19.82;43.24
63903;BME280;50072;50.678;13.938;2024-03-22T12:37:21;99420.09;;;19.82;44.13
63903;BME280;50072;50.678;13.938;2024-03-22T12:39:48;99414.50;;;19.98;42.97
63903;BME280;50072;50.678;13.938;2024-03-22T12:42:15;99419.81;;;19.87;42.75
63903;BME280;50072;50.678;13.938;2024-03-22T12:44:41;99406.03;;;19.90;42.53
63903;BME280;50072;50.678;13.938;2024-03-22T12:47:08;99405.28;;;19.73;42.66
63903;BME280;50072;50.678;13.938;2024-03-22T12:49:35;99402.19;;;19.65;43.69
63903;BME280;50072;50.678;13.938;2024-03-22T12:52:02;99397.91;;;19.75;43.62